Mendon - 24 Hour Table
Date & TimeSolar
Radiation
(W/m²)
Wind
Speed
(mph)
Wind
Direction
(degrees)
Air
Temperature
(°F)
Relative
Humidity
(%)
Precipitation
(inches)
2022/05/21 01:00 2 0.0 285 34.0 80 0.00
2022/05/21 00:00 2 0.0 261 35.7 74 0.00
2022/05/20 23:00 2 0.0 311 38.7 72 0.00
2022/05/20 22:00 2 0.0 211 37.3 68 0.00
2022/05/20 21:00 2 0.0 169 38.0 73 0.00
2022/05/20 20:00 8 0.0 161 41.6 71 0.00
2022/05/20 19:00 37 1.3 143 44.9 61 0.00
2022/05/20 18:00 145 2.7 153 49.7 48 0.00
2022/05/20 17:00 67 1.4 162 48.9 40 0.00
2022/05/20 16:00 183 1.6 336 49.2 50 0.00
2022/05/20 15:00 286 0.4 40 50.1 46 0.00
2022/05/20 14:00 421 0.4 17 51.0 54 0.00
2022/05/20 13:00 665 0.4 29 52.0 33 0.00
2022/05/20 12:00 978 0.6 13 50.4 39 0.00
2022/05/20 11:00 614 1.4 357 46.5 44 0.00
2022/05/20 10:00 573 1.7 339 44.1 47 0.00
2022/05/20 09:00 214 1.6 337 41.1 49 0.00
2022/05/20 08:00 129 0.5 331 39.1 51 0.00
2022/05/20 07:00 65 1.0 320 36.7 51 0.00
2022/05/20 06:00 17 0.0 285 29.5 70 0.00
2022/05/20 05:00 2 0.0 297 30.4 71 0.00
2022/05/20 04:00 2 0.0 304 32.1 65 0.00
2022/05/20 03:00 2 0.0 310 35.8 59 0.00
2022/05/20 02:00 2 1.7 339 39.6 44 0.00